Time;durP1;ratioP1;P1;durP2;ratioP2;P2;SDS_P1;SDS_P2;PMS_P1;PMS_P2;Temp;Humidity;BMP_temperature;BMP_pressure;BME280_temperature;BME280_humidity;BME280_pressure;Samples;Min_cycle;Max_cycle;Signal;HPM_P1;HPM_P2
2023/04/03 00:01:41;;;;;;;3.90;0.90;;;;;;;;;;5052025;28;20025;-71
2023/04/03 00:04:08;;;;;;;2.33;1.08;;;;;;;;;;5051736;28;20432;-72
2023/04/03 00:06:34;;;;;;;1.35;1.13;;;;;;;;;;5051729;28;20021;-72
2023/04/03 00:09:01;;;;;;;0.70;0.70;;;;;;;;;;5053457;28;20009;-72
2023/04/03 00:11:27;;;;;;;0.80;0.80;;;;;;;;;;5055735;28;20482;-72
2023/04/03 00:13:54;;;;;;;1.95;1.27;;;;;;;;;;5055587;28;20099;-71
2023/04/03 00:16:20;;;;;;;1.67;0.90;;;;;;;;;;5055444;28;20024;-71
2023/04/03 00:18:46;;;;;;;0.98;0.90;;;;;;;;;;5055574;28;20404;-72
2023/04/03 00:21:14;;;;;;;0.90;0.90;;;;;;;;;;5055218;28;20021;-72
2023/04/03 00:23:40;;;;;;;1.35;0.98;;;;;;;;;;5055559;28;20047;-72
2023/04/03 00:26:07;;;;;;;1.35;0.80;;;;;;;;;;5055697;28;20029;-72
2023/04/03 00:28:33;;;;;;;1.27;0.68;;;;;;;;;;5055109;28;20031;-72
2023/04/03 00:31:00;;;;;;;0.80;0.80;;;;;;;;;;5055254;28;20443;-70
2023/04/03 00:33:26;;;;;;;0.77;0.70;;;;;;;;;;5055324;28;20029;-72
2023/04/03 00:35:52;;;;;;;0.60;0.60;;;;;;;;;;5054948;28;20032;-72
2023/04/03 00:38:19;;;;;;;0.60;0.60;;;;;;;;;;5055267;28;20036;-72
2023/04/03 00:40:46;;;;;;;1.60;0.80;;;;;;;;;;5055260;28;20021;-72
2023/04/03 00:43:21;;;;;;;0.77;0.77;;;;;;;;;;5055008;28;20063;-71
2023/04/03 00:45:49;;;;;;;1.17;0.85;;;;;;;;;;5055200;28;20025;-72
2023/04/03 00:48:23;;;;;;;1.00;0.93;;;;;;;;;;5054815;28;20375;-72
2023/04/03 00:50:51;;;;;;;2.10;0.80;;;;;;;;;;5053741;28;20025;-72
2023/04/03 00:53:20;;;;;;;1.00;0.80;;;;;;;;;;5054788;28;20017;-71
2023/04/03 00:55:47;;;;;;;1.10;0.90;;;;;;;;;;5054778;28;20020;-72
2023/04/03 00:58:15;;;;;;;0.90;0.90;;;;;;;;;;5054786;28;20032;-72
2023/04/03 01:00:43;;;;;;;0.88;0.88;;;;;;;;;;5054732;28;20503;-72
2023/04/03 01:03:10;;;;;;;1.10;1.00;;;;;;;;;;5054468;28;20035;-72
2023/04/03 01:05:36;;;;;;;0.70;0.70;;;;;;;;;;5054884;28;20025;-72
2023/04/03 01:08:02;;;;;;;1.80;1.08;;;;;;;;;;5054977;28;20029;-72
2023/04/03 01:10:29;;;;;;;0.88;0.88;;;;;;;;;;5053372;28;20462;-72
2023/04/03 01:12:55;;;;;;;4.50;1.10;;;;;;;;;;5054580;28;20386;-72
2023/04/03 01:15:23;;;;;;;1.13;1.00;;;;;;;;;;5054417;28;20027;-71
2023/04/03 01:17:56;;;;;;;1.60;0.90;;;;;;;;;;5054111;28;20033;-72
2023/04/03 01:20:28;;;;;;;1.38;1.00;;;;;;;;;;5053716;28;20469;-71
2023/04/03 01:23:13;;;;;;;1.80;0.93;;;;;;;;;;5054431;28;20033;-72
2023/04/03 01:25:44;;;;;;;1.73;1.15;;;;;;;;;;5054148;28;20023;-72
2023/04/03 01:28:10;;;;;;;;;;;;;;;;;;5054830;28;20037;-71
2023/04/03 01:30:43;;;;;;;1.10;1.00;;;;;;;;;;5054102;28;19920;-72
2023/04/03 01:33:09;;;;;;;1.60;1.00;;;;;;;;;;5054200;28;20039;-72
2023/04/03 01:35:36;;;;;;;1.92;1.05;;;;;;;;;;5054177;28;20401;-71
2023/04/03 01:38:02;;;;;;;1.80;0.75;;;;;;;;;;5054071;28;20043;-71
2023/04/03 01:40:28;;;;;;;2.05;1.20;;;;;;;;;;5054035;28;20017;-72
2023/04/03 01:42:55;;;;;;;1.00;0.90;;;;;;;;;;5054477;28;20029;-72
2023/04/03 01:45:21;;;;;;;1.83;1.20;;;;;;;;;;5054042;28;20035;-72
2023/04/03 01:47:47;;;;;;;1.75;1.17;;;;;;;;;;5053590;28;20385;-72
2023/04/03 01:50:14;;;;;;;0.77;0.75;;;;;;;;;;5053995;28;20029;-71
2023/04/03 01:52:40;;;;;;;0.70;0.70;;;;;;;;;;5053847;28;20062;-71
2023/04/03 01:55:07;;;;;;;1.30;0.90;;;;;;;;;;5053772;28;20025;-71
2023/04/03 01:57:33;;;;;;;0.70;0.70;;;;;;;;;;5053925;28;20035;-71
2023/04/03 01:59:59;;;;;;;0.98;0.75;;;;;;;;;;5053937;28;20063;-71
2023/04/03 02:02:26;;;;;;;0.85;0.77;;;;;;;;;;5053414;28;20017;-72
2023/04/03 02:04:52;;;;;;;0.82;0.82;;;;;;;;;;5054002;28;20021;-72
2023/04/03 02:07:18;;;;;;;1.67;0.80;;;;;;;;;;5053701;28;20527;-72
2023/04/03 02:09:45;;;;;;;0.80;0.70;;;;;;;;;;5053879;28;20033;-72
2023/04/03 02:12:11;;;;;;;0.95;0.77;;;;;;;;;;5053550;28;20018;-71
2023/04/03 02:14:37;;;;;;;1.95;1.10;;;;;;;;;;5053169;28;20029;-71
2023/04/03 02:17:08;;;;;;;1.45;0.73;;;;;;;;;;5053333;28;20023;-72
2023/04/03 02:19:35;;;;;;;1.13;1.00;;;;;;;;;;5053493;28;20031;-71
2023/04/03 02:22:05;;;;;;;1.17;0.80;;;;;;;;;;5053619;28;20036;-72
2023/04/03 02:24:32;;;;;;;0.80;0.70;;;;;;;;;;5053208;28;20032;-72
2023/04/03 02:26:58;;;;;;;1.00;0.98;;;;;;;;;;5052976;28;20029;-72
2023/04/03 02:29:25;;;;;;;2.42;1.10;;;;;;;;;;5053304;28;20057;-71
2023/04/03 02:31:51;;;;;;;1.02;0.90;;;;;;;;;;5051945;28;20029;-72
2023/04/03 02:34:18;;;;;;;1.05;0.90;;;;;;;;;;5052952;28;20029;-72
2023/04/03 02:36:44;;;;;;;0.93;0.93;;;;;;;;;;5053500;28;20017;-72
2023/04/03 02:39:11;;;;;;;1.45;0.90;;;;;;;;;;5052692;28;20388;-72
2023/04/03 02:41:37;;;;;;;1.02;0.90;;;;;;;;;;5053109;28;20482;-72
2023/04/03 02:44:04;;;;;;;2.40;1.13;;;;;;;;;;5052710;28;20547;-71
2023/04/03 02:46:31;;;;;;;2.20;1.10;;;;;;;;;;5052814;28;20039;-72
2023/04/03 02:48:57;;;;;;;1.23;0.98;;;;;;;;;;5052962;28;20031;-72
2023/04/03 02:51:24;;;;;;;1.52;1.05;;;;;;;;;;5052628;28;20029;-71
2023/04/03 02:53:50;;;;;;;2.17;0.85;;;;;;;;;;5052706;28;20017;-72
2023/04/03 02:56:18;;;;;;;1.25;0.98;;;;;;;;;;5053087;28;20017;-72
2023/04/03 02:58:44;;;;;;;0.85;0.80;;;;;;;;;;5052551;28;20041;-72
2023/04/03 03:01:11;;;;;;;1.23;1.02;;;;;;;;;;5052523;28;20016;-71
2023/04/03 03:03:37;;;;;;;1.00;0.90;;;;;;;;;;5052675;28;20040;-72
2023/04/03 03:06:04;;;;;;;2.03;1.08;;;;;;;;;;5052639;28;20482;-72
2023/04/03 03:08:30;;;;;;;1.20;0.85;;;;;;;;;;5052411;28;20021;-72
2023/04/03 03:10:56;;;;;;;0.80;0.80;;;;;;;;;;5052351;28;20024;-72
2023/04/03 03:13:23;;;;;;;0.93;0.75;;;;;;;;;;5051313;28;20028;-72
2023/04/03 03:15:50;;;;;;;0.82;0.75;;;;;;;;;;5052081;28;20033;-71
2023/04/03 03:18:16;;;;;;;2.95;0.90;;;;;;;;;;5052109;28;20033;-71
2023/04/03 03:20:43;;;;;;;1.10;0.80;;;;;;;;;;5052145;28;20032;-72
2023/04/03 03:23:09;;;;;;;0.70;0.70;;;;;;;;;;5052271;28;20029;-71
2023/04/03 03:25:40;;;;;;;0.73;0.60;;;;;;;;;;5052198;28;20031;-72
2023/04/03 03:28:06;;;;;;;0.82;0.75;;;;;;;;;;5052050;28;20021;-72
2023/04/03 03:30:32;;;;;;;0.60;0.60;;;;;;;;;;5051852;28;20051;-72
2023/04/03 03:32:59;;;;;;;1.88;0.70;;;;;;;;;;5052162;28;20103;-72
2023/04/03 03:35:25;;;;;;;1.05;0.80;;;;;;;;;;5052083;28;20416;-71
2023/04/03 03:37:52;;;;;;;1.33;0.60;;;;;;;;;;5052344;28;20032;-72
2023/04/03 03:40:18;;;;;;;1.00;0.65;;;;;;;;;;5051851;28;20483;-72
2023/04/03 03:42:44;;;;;;;0.65;0.60;;;;;;;;;;5052301;28;20025;-72
2023/04/03 03:45:11;;;;;;;0.50;0.50;;;;;;;;;;5058498;28;20021;-72
2023/04/03 03:47:37;;;;;;;1.98;0.68;;;;;;;;;;5058682;28;20028;-72
2023/04/03 03:50:04;;;;;;;1.02;0.80;;;;;;;;;;5058574;28;20573;-72
2023/04/03 03:52:30;;;;;;;0.57;0.57;;;;;;;;;;5058571;28;20078;-72
2023/04/03 03:54:57;;;;;;;0.68;0.68;;;;;;;;;;5058540;28;20382;-72
2023/04/03 03:57:23;;;;;;;2.55;0.93;;;;;;;;;;5058317;28;20021;-72
2023/04/03 03:59:51;;;;;;;0.85;0.82;;;;;;;;;;5058649;28;20035;-72
2023/04/03 04:02:17;;;;;;;0.80;0.80;;;;;;;;;;5058510;28;20021;-71
2023/04/03 04:04:44;;;;;;;0.70;0.70;;;;;;;;;;5058523;28;20037;-72
2023/04/03 04:07:10;;;;;;;2.05;1.15;;;;;;;;;;5058415;28;20025;-72
2023/04/03 04:09:36;;;;;;;1.13;0.77;;;;;;;;;;5058416;28;20021;-71
2023/04/03 04:12:03;;;;;;;2.08;1.10;;;;;;;;;;5058051;28;20029;-71
2023/04/03 04:14:29;;;;;;;0.85;0.82;;;;;;;;;;5057098;28;20037;-72
2023/04/03 04:16:56;;;;;;;0.70;0.70;;;;;;;;;;5058555;28;20029;-72
2023/04/03 04:19:22;;;;;;;1.05;1.00;;;;;;;;;;5058194;28;20428;-71
2023/04/03 04:21:48;;;;;;;0.88;0.85;;;;;;;;;;5058338;28;20021;-71
2023/04/03 04:24:15;;;;;;;2.88;0.88;;;;;;;;;;5058445;28;20040;-71
2023/04/03 04:26:41;;;;;;;0.60;0.60;;;;;;;;;;5058012;28;20021;-72
2023/04/03 04:29:09;;;;;;;0.77;0.60;;;;;;;;;;5090429;28;20040;-72
2023/04/03 04:31:36;;;;;;;0.75;0.75;;;;;;;;;;5058314;28;20031;-72
2023/04/03 04:34:02;;;;;;;1.05;0.82;;;;;;;;;;5058417;28;20021;-72
2023/04/03 04:36:28;;;;;;;0.80;0.77;;;;;;;;;;5058127;28;20393;-72
2023/04/03 04:38:55;;;;;;;1.15;0.80;;;;;;;;;;5058260;28;20036;-71
2023/04/03 04:41:22;;;;;;;0.70;0.70;;;;;;;;;;5057786;28;20020;-71
2023/04/03 04:43:49;;;;;;;1.52;0.98;;;;;;;;;;5058005;28;20021;-71
2023/04/03 04:46:16;;;;;;;0.60;0.60;;;;;;;;;;5058134;28;20035;-72
2023/04/03 04:48:42;;;;;;;0.70;0.70;;;;;;;;;;5058278;28;20040;-72
2023/04/03 04:51:08;;;;;;;0.80;0.77;;;;;;;;;;5057983;28;20027;-71
2023/04/03 04:53:35;;;;;;;0.77;0.77;;;;;;;;;;5058281;28;20021;-71
2023/04/03 04:56:01;;;;;;;1.00;0.90;;;;;;;;;;5054296;28;20393;-72
2023/04/03 04:58:28;;;;;;;1.13;0.90;;;;;;;;;;5054742;28;20040;-71
2023/04/03 05:01:00;;;;;;;1.02;0.90;;;;;;;;;;5055012;28;20021;-72
2023/04/03 05:03:27;;;;;;;1.92;0.95;;;;;;;;;;5054775;28;20025;-72
2023/04/03 05:05:53;;;;;;;1.50;1.02;;;;;;;;;;5054530;28;20478;-72
2023/04/03 05:08:21;;;;;;;1.25;0.88;;;;;;;;;;5054708;28;20021;-72
2023/04/03 05:10:47;;;;;;;7.45;1.80;;;;;;;;;;5054360;28;20033;-72
2023/04/03 05:13:13;;;;;;;1.20;1.10;;;;;;;;;;5053223;28;20021;-71
2023/04/03 05:15:40;;;;;;;1.40;1.30;;;;;;;;;;5054435;28;20028;-72
2023/04/03 05:18:06;;;;;;;1.00;0.95;;;;;;;;;;5054282;28;20039;-72
2023/04/03 05:20:33;;;;;;;0.80;0.80;;;;;;;;;;5054444;28;20082;-72
2023/04/03 05:22:59;;;;;;;0.93;0.85;;;;;;;;;;5054338;28;20031;-71
2023/04/03 05:25:26;;;;;;;1.27;1.10;;;;;;;;;;5054600;28;20053;-71
2023/04/03 05:27:52;;;;;;;1.75;1.30;;;;;;;;;;5054075;28;20393;-71
2023/04/03 05:30:19;;;;;;;1.95;1.50;;;;;;;;;;5054041;28;20053;-71
2023/04/03 05:32:45;;;;;;;1.67;1.38;;;;;;;;;;5054129;28;20538;-71
2023/04/03 05:35:12;;;;;;;5.80;1.77;;;;;;;;;;5054101;28;20397;-72
2023/04/03 05:37:38;;;;;;;1.63;1.35;;;;;;;;;;5053961;28;20021;-72
2023/04/03 05:40:05;;;;;;;1.30;1.10;;;;;;;;;;5054130;28;20028;-71
2023/04/03 05:42:31;;;;;;;1.23;1.10;;;;;;;;;;5054081;28;20025;-72
2023/04/03 05:44:58;;;;;;;1.23;1.13;;;;;;;;;;5054184;28;20086;-72
2023/04/03 05:47:24;;;;;;;0.88;0.88;;;;;;;;;;5053917;28;20021;-70
2023/04/03 05:49:50;;;;;;;1.10;1.00;;;;;;;;;;5053705;28;20462;-71
2023/04/03 05:52:23;;;;;;;1.15;1.05;;;;;;;;;;5053748;28;20033;-71
2023/04/03 05:54:49;;;;;;;2.05;1.20;;;;;;;;;;5053779;28;20070;-72
2023/04/03 05:57:16;;;;;;;1.50;1.10;;;;;;;;;;5053612;28;20029;-72
2023/04/03 05:59:46;;;;;;;1.48;1.30;;;;;;;;;;5053517;28;20070;-71
2023/04/03 06:02:14;;;;;;;1.83;1.30;;;;;;;;;;5054086;28;20021;-72
2023/04/03 06:04:40;;;;;;;1.77;1.23;;;;;;;;;;5053367;28;20493;-71
2023/04/03 06:07:07;;;;;;;1.92;1.50;;;;;;;;;;5053596;28;20028;-71
2023/04/03 06:09:34;;;;;;;1.08;0.98;;;;;;;;;;5053476;28;20028;-72
2023/04/03 06:12:01;;;;;;;1.58;1.40;;;;;;;;;;5053149;28;20477;-71
2023/04/03 06:14:28;;;;;;;2.63;1.20;;;;;;;;;;5053238;28;20442;-71
2023/04/03 06:16:54;;;;;;;1.58;1.20;;;;;;;;;;5053507;28;20021;-72
2023/04/03 06:19:21;;;;;;;4.78;1.40;;;;;;;;;;5048588;28;20037;-72
2023/04/03 06:21:47;;;;;;;1.05;0.93;;;;;;;;;;5049199;28;20039;-70
2023/04/03 06:24:15;;;;;;;1.23;1.00;;;;;;;;;;5051201;28;20021;-67
2023/04/03 06:26:41;;;;;;;1.48;1.30;;;;;;;;;;5044570;28;20025;-71
2023/04/03 06:29:08;;;;;;;2.85;1.30;;;;;;;;;;5045590;28;20494;-69
2023/04/03 06:31:36;;;;;;;4.72;2.90;;;;;;;;;;5046987;28;20023;-70
2023/04/03 06:34:03;;;;;;;4.20;2.20;;;;;;;;;;5049665;28;20021;-69
2023/04/03 06:36:29;;;;;;;1.67;1.48;;;;;;;;;;5050004;28;20025;-70
2023/04/03 06:38:56;;;;;;;2.38;1.80;;;;;;;;;;5047816;28;20055;-70
2023/04/03 06:41:22;;;;;;;5.43;2.80;;;;;;;;;;5045714;28;20029;-70
2023/04/03 06:43:48;;;;;;;2.72;1.77;;;;;;;;;;5051441;28;20089;-70
2023/04/03 06:46:16;;;;;;;5.70;3.60;;;;;;;;;;5063912;28;20470;-69
2023/04/03 06:48:42;;;;;;;4.07;2.10;;;;;;;;;;5053055;28;20043;-71
2023/04/03 06:51:35;;;;;;;4.53;2.10;;;;;;;;;;5051990;28;20533;-70
2023/04/03 06:54:02;;;;;;;12.07;9.80;;;;;;;;;;5049556;28;20561;-70
2023/04/03 06:56:29;;;;;;;4.45;3.20;;;;;;;;;;5051848;28;20486;-70
2023/04/03 06:58:57;;;;;;;7.88;4.60;;;;;;;;;;5046642;28;20027;-71
2023/04/03 07:01:25;;;;;;;4.88;3.28;;;;;;;;;;5046329;28;20078;-70
2023/04/03 07:03:52;;;;;;;2.00;1.23;;;;;;;;;;5043318;28;20490;-71
2023/04/03 07:06:19;;;;;;;1.13;0.85;;;;;;;;;;5038665;28;20047;-71
2023/04/03 07:08:46;;;;;;;4.05;2.70;;;;;;;;;;5044570;28;20035;-71
2023/04/03 07:11:13;;;;;;;1.38;0.95;;;;;;;;;;5037673;28;20055;-71
2023/04/03 07:13:39;;;;;;;1.00;0.82;;;;;;;;;;5046313;28;20026;-71
2023/04/03 07:16:06;;;;;;;1.38;1.20;;;;;;;;;;5042396;28;20024;-72
2023/04/03 07:18:33;;;;;;;1.98;1.30;;;;;;;;;;5042039;28;20047;-71
2023/04/03 07:21:00;;;;;;;2.30;1.10;;;;;;;;;;5047061;28;20029;-71
2023/04/03 07:23:26;;;;;;;0.95;0.77;;;;;;;;;;5050704;28;20086;-71
2023/04/03 07:25:53;;;;;;;2.83;1.50;;;;;;;;;;5044693;28;20028;-72
2023/04/03 07:28:22;;;;;;;1.83;1.08;;;;;;;;;;5046512;28;20037;-71
2023/04/03 07:30:50;;;;;;;1.13;1.00;;;;;;;;;;5045556;28;20513;-71
2023/04/03 07:33:17;;;;;;;2.00;1.75;;;;;;;;;;5045421;28;20047;-71
2023/04/03 07:35:44;;;;;;;2.15;1.40;;;;;;;;;;5048562;28;20456;-72
2023/04/03 07:38:10;;;;;;;1.02;0.90;;;;;;;;;;5049762;28;20039;-69
2023/04/03 07:40:37;;;;;;;1.58;0.82;;;;;;;;;;5042867;28;20025;-66
2023/04/03 07:43:04;;;;;;;0.52;0.52;;;;;;;;;;5049484;28;20021;-66
2023/04/03 07:45:30;;;;;;;0.52;0.52;;;;;;;;;;5049714;28;20033;-67
2023/04/03 07:47:56;;;;;;;0.93;0.82;;;;;;;;;;5049686;28;20029;-68
2023/04/03 07:50:23;;;;;;;0.98;0.88;;;;;;;;;;5049893;28;20086;-66
2023/04/03 07:52:50;;;;;;;0.98;0.90;;;;;;;;;;5050122;28;20017;-64
2023/04/03 07:55:17;;;;;;;1.25;0.95;;;;;;;;;;5050107;28;20032;-65
2023/04/03 07:57:43;;;;;;;1.38;0.90;;;;;;;;;;5050193;28;20028;-65
2023/04/03 08:00:11;;;;;;;1.13;0.50;;;;;;;;;;5049895;28;20032;-64
2023/04/03 08:02:38;;;;;;;0.50;0.50;;;;;;;;;;5049054;28;20039;-64
2023/04/03 08:05:05;;;;;;;1.23;0.77;;;;;;;;;;5048497;28;20044;-63
2023/04/03 08:07:31;;;;;;;0.95;0.80;;;;;;;;;;5042471;28;20035;-63
2023/04/03 08:09:57;;;;;;;3.38;1.60;;;;;;;;;;5065060;28;20040;-64
2023/04/03 08:12:24;;;;;;;2.10;1.20;;;;;;;;;;5041283;28;20029;-64
2023/04/03 08:14:50;;;;;;;3.03;2.40;;;;;;;;;;5043071;28;20086;-63
2023/04/03 08:17:17;;;;;;;3.60;2.90;;;;;;;;;;5042954;28;20509;-64
2023/04/03 08:19:43;;;;;;;3.00;2.30;;;;;;;;;;5051099;28;20032;-65
2023/04/03 08:22:10;;;;;;;1.15;0.95;;;;;;;;;;5046465;28;20573;-64
2023/04/03 08:24:36;;;;;;;2.55;1.67;;;;;;;;;;5047659;28;20036;-68
2023/04/03 08:27:03;;;;;;;1.58;1.33;;;;;;;;;;5048364;28;20025;-64
2023/04/03 08:29:29;;;;;;;0.60;0.60;;;;;;;;;;5050748;28;20041;-63
2023/04/03 08:31:55;;;;;;;2.08;1.55;;;;;;;;;;5054114;28;20029;-64
2023/04/03 08:34:22;;;;;;;1.08;0.93;;;;;;;;;;5053693;28;20021;-63
2023/04/03 08:36:48;;;;;;;1.20;1.00;;;;;;;;;;5054307;28;20025;-63
2023/04/03 08:39:15;;;;;;;1.13;0.95;;;;;;;;;;5053164;28;20401;-64
2023/04/03 08:41:43;;;;;;;1.95;1.00;;;;;;;;;;5052462;28;20028;-64
2023/04/03 08:44:16;;;;;;;1.13;0.65;;;;;;;;;;5053390;28;20412;-62
2023/04/03 08:47:01;;;;;;;0.40;0.40;;;;;;;;;;5045918;28;20036;-65
2023/04/03 08:49:40;;;;;;;0.60;0.60;;;;;;;;;;5040665;28;20033;-65
2023/04/03 08:52:12;;;;;;;0.80;0.50;;;;;;;;;;5039068;28;20035;-64
2023/04/03 08:54:55;;;;;;;1.05;0.50;;;;;;;;;;5050871;28;20040;-65
2023/04/03 08:57:27;;;;;;;3.92;0.60;;;;;;;;;;5053589;28;20515;-66
2023/04/03 08:59:53;;;;;;;0.60;0.60;;;;;;;;;;5047497;28;20040;-64
2023/04/03 09:02:19;;;;;;;1.02;0.47;;;;;;;;;;5053398;28;20389;-66
2023/04/03 09:04:46;;;;;;;2.25;0.50;;;;;;;;;;5052544;28;20398;-65
2023/04/03 09:07:17;;;;;;;1.92;0.98;;;;;;;;;;5051202;28;20021;-65
2023/04/03 09:09:44;;;;;;;2.20;1.75;;;;;;;;;;5053046;28;20031;-66
2023/04/03 09:12:15;;;;;;;0.60;0.57;;;;;;;;;;5052705;28;20029;-65
2023/04/03 09:14:42;;;;;;;1.88;0.80;;;;;;;;;;5053569;28;20021;-64
2023/04/03 09:17:11;;;;;;;0.60;0.60;;;;;;;;;;5052906;28;20017;-65
2023/04/03 09:19:41;;;;;;;1.55;1.00;;;;;;;;;;5053099;28;20519;-65
2023/04/03 09:22:08;;;;;;;0.57;0.50;;;;;;;;;;5049392;28;20036;-64
2023/04/03 09:24:34;;;;;;;0.70;0.70;;;;;;;;;;5052219;28;20047;-63
2023/04/03 09:27:09;;;;;;;0.50;0.45;;;;;;;;;;5050133;28;20035;-66
2023/04/03 09:29:39;;;;;;;1.95;1.80;;;;;;;;;;5052173;28;20401;-67
2023/04/03 09:32:26;;;;;;;2.30;1.70;;;;;;;;;;5051765;28;20033;-63
2023/04/03 09:34:55;;;;;;;0.73;0.68;;;;;;;;;;5048306;28;20041;-66
2023/04/03 09:37:36;;;;;;;1.58;0.60;;;;;;;;;;5053082;28;20029;-65
2023/04/03 09:40:04;;;;;;;0.68;0.50;;;;;;;;;;5047208;28;20049;-64
2023/04/03 09:42:31;;;;;;;6.28;5.68;;;;;;;;;;5052216;28;20051;-66
2023/04/03 09:45:01;;;;;;;3.95;2.35;;;;;;;;;;5052339;28;20078;-67
2023/04/03 09:47:30;;;;;;;2.22;2.03;;;;;;;;;;5048995;28;20023;-67
2023/04/03 09:50:14;;;;;;;1.05;0.90;;;;;;;;;;5052923;28;20044;-66
2023/04/03 09:52:42;;;;;;;1.63;1.40;;;;;;;;;;5052846;28;20515;-67
2023/04/03 09:55:14;;;;;;;6.80;6.10;;;;;;;;;;5052923;28;20021;-68
2023/04/03 09:57:40;;;;;;;3.88;2.42;;;;;;;;;;5053148;28;20401;-69
2023/04/03 10:00:10;;;;;;;2.05;1.73;;;;;;;;;;5052440;28;20032;-68
2023/04/03 10:02:38;;;;;;;1.90;1.20;;;;;;;;;;5053223;28;20017;-72
2023/04/03 10:05:25;;;;;;;1.63;1.50;;;;;;;;;;5052833;28;20032;-69
2023/04/03 10:07:51;;;;;;;2.25;1.08;;;;;;;;;;5053058;28;20032;-67
2023/04/03 10:10:25;;;;;;;2.35;0.30;;;;;;;;;;5052518;28;20025;-71
2023/04/03 10:13:10;;;;;;;0.40;0.40;;;;;;;;;;5052202;28;20031;-66
2023/04/03 10:15:43;;;;;;;0.50;0.50;;;;;;;;;;5052949;28;20022;-69
2023/04/03 10:18:23;;;;;;;0.50;0.50;;;;;;;;;;5052746;28;20037;-68
2023/04/03 10:20:52;;;;;;;0.40;0.40;;;;;;;;;;5052881;28;20024;-71
2023/04/03 10:23:22;;;;;;;0.70;0.50;;;;;;;;;;5052624;28;20033;-69
2023/04/03 10:25:54;;;;;;;0.32;0.30;;;;;;;;;;5049264;28;20013;-68
2023/04/03 10:28:26;;;;;;;0.60;0.57;;;;;;;;;;5037889;28;20490;-69
2023/04/03 10:30:52;;;;;;;0.65;0.35;;;;;;;;;;5051577;28;20037;-67
2023/04/03 10:33:18;;;;;;;0.40;0.40;;;;;;;;;;5052717;28;20025;-67
2023/04/03 10:35:57;;;;;;;2.17;0.35;;;;;;;;;;5051842;28;20028;-68
2023/04/03 10:38:29;;;;;;;0.55;0.40;;;;;;;;;;5051276;28;20043;-67
2023/04/03 10:41:20;;;;;;;2.92;0.40;;;;;;;;;;5051637;28;20021;-68
2023/04/03 10:43:58;;;;;;;0.30;0.30;;;;;;;;;;5048839;28;20052;-68
2023/04/03 10:46:28;;;;;;;0.30;0.30;;;;;;;;;;5048891;28;20033;-67
2023/04/03 10:48:54;;;;;;;1.20;0.60;;;;;;;;;;5049592;28;20078;-67
2023/04/03 10:51:39;;;;;;;0.50;0.43;;;;;;;;;;5049314;28;20017;-67
2023/04/03 10:54:09;;;;;;;1.15;0.70;;;;;;;;;;5032229;28;20037;-67
2023/04/03 10:56:40;;;;;;;0.85;0.57;;;;;;;;;;5029144;28;20035;-67
2023/04/03 10:59:06;;;;;;;1.75;1.02;;;;;;;;;;5028520;28;20033;-67
2023/04/03 11:01:38;;;;;;;0.90;0.60;;;;;;;;;;5012721;28;20042;-68
2023/04/03 11:04:06;;;;;;;0.30;0.30;;;;;;;;;;5028746;28;20425;-65
2023/04/03 11:06:42;;;;;;;1.73;0.50;;;;;;;;;;5028871;28;20022;-65
2023/04/03 11:09:17;;;;;;;0.60;0.57;;;;;;;;;;5028821;28;20036;-65
2023/04/03 11:11:44;;;;;;;1.08;0.95;;;;;;;;;;5028495;28;20036;-65
2023/04/03 11:14:16;;;;;;;0.77;0.43;;;;;;;;;;5028606;28;20175;-65
2023/04/03 11:16:48;;;;;;;0.40;0.30;;;;;;;;;;5028768;28;20071;-65
2023/04/03 11:19:24;;;;;;;0.57;0.40;;;;;;;;;;5028659;28;20071;-64
2023/04/03 11:21:51;;;;;;;3.13;2.55;;;;;;;;;;5031115;28;20034;-65
2023/04/03 11:24:22;;;;;;;0.40;0.40;;;;;;;;;;5031685;28;20477;-65
2023/04/03 11:26:50;;;;;;;0.70;0.70;;;;;;;;;;5031817;28;20021;-65
2023/04/03 11:29:21;;;;;;;1.23;0.47;;;;;;;;;;5031752;28;20429;-67
2023/04/03 11:32:14;;;;;;;0.30;0.30;;;;;;;;;;5031878;28;20043;-66
2023/04/03 11:34:43;;;;;;;0.57;0.40;;;;;;;;;;5029790;28;20068;-64
2023/04/03 11:37:18;;;;;;;1.20;0.60;;;;;;;;;;5025853;28;20026;-66
2023/04/03 11:39:51;;;;;;;0.40;0.40;;;;;;;;;;5009535;28;20100;-65
2023/04/03 11:42:32;;;;;;;0.40;0.40;;;;;;;;;;5009073;28;20026;-66
2023/04/03 11:45:25;;;;;;;0.52;0.30;;;;;;;;;;5008244;28;20030;-67
2023/04/03 11:47:53;;;;;;;1.35;0.70;;;;;;;;;;4931547;29;20039;-66
2023/04/03 11:50:31;;;;;;;0.43;0.43;;;;;;;;;;4929084;29;20051;-66
2023/04/03 11:53:02;;;;;;;1.65;0.50;;;;;;;;;;4928742;29;20039;-69
2023/04/03 11:55:28;;;;;;;1.08;0.82;;;;;;;;;;4929451;29;20027;-68
2023/04/03 11:58:00;;;;;;;1.00;0.90;;;;;;;;;;4929304;29;20028;-68
2023/04/03 12:00:50;;;;;;;1.73;0.50;;;;;;;;;;4928111;29;20052;-69
2023/04/03 12:03:29;;;;;;;0.52;0.40;;;;;;;;;;4946409;29;20814;-69
2023/04/03 12:05:58;;;;;;;0.60;0.60;;;;;;;;;;4931102;29;20044;-69
2023/04/03 12:08:26;;;;;;;1.25;0.50;;;;;;;;;;4932634;29;20035;-72
2023/04/03 12:11:11;;;;;;;0.40;0.30;;;;;;;;;;4938154;29;20039;-68
2023/04/03 12:13:42;;;;;;;0.45;0.45;;;;;;;;;;4965949;28;20052;-69
2023/04/03 12:16:32;;;;;;;0.75;0.30;;;;;;;;;;4972993;28;20034;-69
2023/04/03 12:19:00;;;;;;;0.98;0.80;;;;;;;;;;4966933;28;20530;-69
2023/04/03 12:21:38;;;;;;;1.02;0.60;;;;;;;;;;4972301;28;20045;-68
2023/04/03 12:24:08;;;;;;;0.52;0.20;;;;;;;;;;4990092;28;20037;-68
2023/04/03 12:26:53;;;;;;;0.50;0.50;;;;;;;;;;5053779;28;20405;-68
2023/04/03 12:29:24;;;;;;;0.38;0.38;;;;;;;;;;5054028;28;20040;-67
2023/04/03 12:31:59;;;;;;;0.40;0.30;;;;;;;;;;5053847;28;20051;-68
2023/04/03 12:34:42;;;;;;;0.47;0.38;;;;;;;;;;5053580;28;20392;-67
2023/04/03 12:37:15;;;;;;;0.38;0.30;;;;;;;;;;5051848;28;20027;-68
2023/04/03 12:39:53;;;;;;;0.20;0.20;;;;;;;;;;5053290;28;20025;-68
2023/04/03 12:42:46;;;;;;;0.20;0.20;;;;;;;;;;5053477;28;20417;-67
2023/04/03 12:45:35;;;;;;;0.30;0.30;;;;;;;;;;5008682;28;20048;-67
2023/04/03 12:48:02;;;;;;;2.15;0.50;;;;;;;;;;5003740;28;20425;-67
2023/04/03 12:50:32;;;;;;;0.40;0.40;;;;;;;;;;5007017;28;20118;-69
2023/04/03 12:53:05;;;;;;;5.88;1.27;;;;;;;;;;5011539;28;20473;-69
2023/04/03 12:55:32;;;;;;;0.40;0.40;;;;;;;;;;5011169;28;20524;-69
2023/04/03 12:58:14;;;;;;;0.63;0.45;;;;;;;;;;5010704;28;20533;-67
2023/04/03 13:00:41;;;;;;;1.27;0.60;;;;;;;;;;5011518;28;20034;-67
2023/04/03 13:03:19;;;;;;;0.65;0.30;;;;;;;;;;4998579;28;20045;-67
2023/04/03 13:05:46;;;;;;;0.20;0.20;;;;;;;;;;5003569;28;20123;-67
2023/04/03 13:08:15;;;;;;;0.30;0.30;;;;;;;;;;4994432;28;20114;-67
2023/04/03 13:11:08;;;;;;;0.20;0.20;;;;;;;;;;4995345;28;20029;-68
2023/04/03 13:13:35;;;;;;;0.20;0.20;;;;;;;;;;5003547;28;20073;-70
2023/04/03 13:16:10;;;;;;;0.20;0.20;;;;;;;;;;5009619;28;20042;-69
2023/04/03 13:18:37;;;;;;;0.20;0.20;;;;;;;;;;5010878;28;20046;-69
2023/04/03 13:21:05;;;;;;;0.73;0.30;;;;;;;;;;5028909;28;20032;-68
2023/04/03 13:23:32;;;;;;;0.40;0.40;;;;;;;;;;5063057;28;20033;-69
2023/04/03 13:26:03;;;;;;;0.32;0.32;;;;;;;;;;5054193;28;20029;-69
2023/04/03 13:28:29;;;;;;;;;;;;;;;;;;5051998;28;20385;-67
2023/04/03 13:31:16;;;;;;;0.55;0.50;;;;;;;;;;5050382;28;19962;-69
2023/04/03 13:33:52;;;;;;;1.40;0.57;;;;;;;;;;5050035;28;20039;-69
2023/04/03 13:36:21;;;;;;;0.50;0.50;;;;;;;;;;5051820;28;20420;-69
2023/04/03 13:38:58;;;;;;;0.50;0.50;;;;;;;;;;5052713;28;20051;-67
2023/04/03 13:41:32;;;;;;;0.40;0.40;;;;;;;;;;5051205;28;20031;-68
2023/04/03 13:44:15;;;;;;;2.47;0.43;;;;;;;;;;5052120;28;20029;-68
2023/04/03 13:46:41;;;;;;;0.30;0.30;;;;;;;;;;5049685;28;20031;-68
2023/04/03 13:49:29;;;;;;;0.68;0.32;;;;;;;;;;5052605;28;20499;-68
2023/04/03 13:51:56;;;;;;;0.22;0.22;;;;;;;;;;5054507;28;20037;-68
2023/04/03 13:54:34;;;;;;;2.40;0.50;;;;;;;;;;5052196;28;20027;-67
2023/04/03 13:57:01;;;;;;;0.57;0.30;;;;;;;;;;5050490;28;20039;-68
2023/04/03 13:59:30;;;;;;;0.40;0.40;;;;;;;;;;5051816;28;20036;-68
2023/04/03 14:01:56;;;;;;;0.30;0.30;;;;;;;;;;5051955;28;20485;-69
2023/04/03 14:04:27;;;;;;;1.58;0.40;;;;;;;;;;5052182;28;20043;-68
2023/04/03 14:06:54;;;;;;;3.20;0.60;;;;;;;;;;5051994;28;20035;-69
2023/04/03 14:09:21;;;;;;;0.45;0.40;;;;;;;;;;5051997;28;20031;-68
2023/04/03 14:11:48;;;;;;;0.55;0.43;;;;;;;;;;5052487;28;20035;-68
2023/04/03 14:14:26;;;;;;;0.40;0.32;;;;;;;;;;5051536;28;20021;-68
2023/04/03 14:16:58;;;;;;;0.30;0.30;;;;;;;;;;5055130;28;20025;-68
2023/04/03 14:19:29;;;;;;;0.20;0.20;;;;;;;;;;5051900;28;20580;-68
2023/04/03 14:21:56;;;;;;;0.25;0.25;;;;;;;;;;5068572;28;20034;-68
2023/04/03 14:24:23;;;;;;;0.20;0.20;;;;;;;;;;5072004;28;20036;-69
2023/04/03 14:26:50;;;;;;;0.40;0.40;;;;;;;;;;5071683;28;20402;-70
2023/04/03 14:29:16;;;;;;;0.85;0.40;;;;;;;;;;5071382;28;20040;-66
2023/04/03 14:31:44;;;;;;;0.77;0.77;;;;;;;;;;5071112;28;20477;-68
2023/04/03 14:34:11;;;;;;;0.50;0.47;;;;;;;;;;5071518;28;20039;-68
2023/04/03 14:36:38;;;;;;;0.60;0.57;;;;;;;;;;5066323;28;20025;-68
2023/04/03 14:39:06;;;;;;;1.25;0.40;;;;;;;;;;5051926;28;20055;-68
2023/04/03 14:41:32;;;;;;;1.85;1.45;;;;;;;;;;5051476;28;20028;-68
2023/04/03 14:43:59;;;;;;;1.00;0.88;;;;;;;;;;5051716;28;20028;-68
2023/04/03 14:46:31;;;;;;;1.10;0.88;;;;;;;;;;5050381;28;20021;-68
2023/04/03 14:48:57;;;;;;;0.57;0.40;;;;;;;;;;5051584;28;20393;-68
2023/04/03 14:51:24;;;;;;;1.42;1.13;;;;;;;;;;5049773;28;20033;-68
2023/04/03 14:53:51;;;;;;;2.28;0.73;;;;;;;;;;5050496;28;20427;-68
2023/04/03 14:56:28;;;;;;;0.55;0.52;;;;;;;;;;5050241;28;20025;-68